sensor_id;sensor_type;location;lat;lon;timestamp;pressure;altitude;pressure_sealevel;temperature;humidity
72959;BME280;60008;50.826;6.896;2022-08-19T00:01:59;100694.84;;;19.06;76.26
72959;BME280;60008;50.826;6.896;2022-08-19T00:04:29;100694.44;;;19.02;77.04
72959;BME280;60008;50.826;6.896;2022-08-19T00:06:57;100682.34;;;18.93;77.29
72959;BME280;60008;50.826;6.896;2022-08-19T00:09:24;100693.28;;;18.92;77.18
72959;BME280;60008;50.826;6.896;2022-08-19T00:11:53;100684.31;;;18.73;77.81
72959;BME280;60008;50.826;6.896;2022-08-19T00:14:23;100686.13;;;18.79;78.50
72959;BME280;60008;50.826;6.896;2022-08-19T00:16:51;100689.44;;;18.81;77.87
72959;BME280;60008;50.826;6.896;2022-08-19T00:19:21;100688.66;;;18.74;77.89
72959;BME280;60008;50.826;6.896;2022-08-19T00:21:51;100690.84;;;18.84;77.94
72959;BME280;60008;50.826;6.896;2022-08-19T00:24:18;100695.81;;;18.87;77.89
72959;BME280;60008;50.826;6.896;2022-08-19T00:26:46;100707.19;;;18.82;77.96
72959;BME280;60008;50.826;6.896;2022-08-19T00:29:15;100701.22;;;18.80;78.16
72959;BME280;60008;50.826;6.896;2022-08-19T00:31:43;100693.66;;;18.64;78.06
72959;BME280;60008;50.826;6.896;2022-08-19T00:34:11;100692.78;;;18.70;78.39
72959;BME280;60008;50.826;6.896;2022-08-19T00:36:39;100693.78;;;18.76;77.92
72959;BME280;60008;50.826;6.896;2022-08-19T00:39:06;100691.50;;;18.79;78.29
72959;BME280;60008;50.826;6.896;2022-08-19T00:41:33;100689.31;;;18.63;77.57
72959;BME280;60008;50.826;6.896;2022-08-19T00:44:13;100689.78;;;18.54;78.45
72959;BME280;60008;50.826;6.896;2022-08-19T00:46:43;100684.44;;;18.40;78.82
72959;BME280;60008;50.826;6.896;2022-08-19T00:49:15;100696.66;;;18.30;79.26
72959;BME280;60008;50.826;6.896;2022-08-19T00:51:45;100695.22;;;18.34;79.63
72959;BME280;60008;50.826;6.896;2022-08-19T00:54:13;100694.16;;;18.35;79.43
72959;BME280;60008;50.826;6.896;2022-08-19T00:56:41;100692.53;;;18.21;79.58
72959;BME280;60008;50.826;6.896;2022-08-19T00:59:08;100698.91;;;18.33;79.70
72959;BME280;60008;50.826;6.896;2022-08-19T01:01:37;100697.66;;;18.42;79.15
72959;BME280;60008;50.826;6.896;2022-08-19T01:04:05;100696.00;;;18.41;79.08
72959;BME280;60008;50.826;6.896;2022-08-19T01:06:32;100695.22;;;18.21;79.79
72959;BME280;60008;50.826;6.896;2022-08-19T01:09:00;100691.88;;;18.32;79.52
72959;BME280;60008;50.826;6.896;2022-08-19T01:11:27;100699.13;;;18.31;79.71
72959;BME280;60008;50.826;6.896;2022-08-19T01:13:54;100701.59;;;18.39;79.78
72959;BME280;60008;50.826;6.896;2022-08-19T01:16:24;100691.72;;;18.27;79.64
72959;BME280;60008;50.826;6.896;2022-08-19T01:18:51;100681.38;;;18.30;79.82
72959;BME280;60008;50.826;6.896;2022-08-19T01:21:31;100682.66;;;18.21;80.62
72959;BME280;60008;50.826;6.896;2022-08-19T01:23:59;100681.41;;;18.24;79.56
72959;BME280;60008;50.826;6.896;2022-08-19T01:26:27;100677.09;;;18.23;79.93
72959;BME280;60008;50.826;6.896;2022-08-19T01:28:58;100676.66;;;18.19;80.21
72959;BME280;60008;50.826;6.896;2022-08-19T01:31:28;100682.50;;;18.03;80.96
72959;BME280;60008;50.826;6.896;2022-08-19T01:34:00;100676.94;;;17.98;81.11
72959;BME280;60008;50.826;6.896;2022-08-19T01:36:31;100676.53;;;18.01;80.62
72959;BME280;60008;50.826;6.896;2022-08-19T01:39:02;100669.31;;;17.95;81.06
72959;BME280;60008;50.826;6.896;2022-08-19T01:41:29;100662.28;;;18.01;81.33
72959;BME280;60008;50.826;6.896;2022-08-19T01:43:55;100665.16;;;18.06;80.99
72959;BME280;60008;50.826;6.896;2022-08-19T01:46:45;100660.66;;;17.93;81.26
72959;BME280;60008;50.826;6.896;2022-08-19T01:49:13;100661.69;;;17.92;81.61
72959;BME280;60008;50.826;6.896;2022-08-19T01:51:40;100663.13;;;17.95;81.50
72959;BME280;60008;50.826;6.896;2022-08-19T01:54:09;100661.47;;;18.00;81.70
72959;BME280;60008;50.826;6.896;2022-08-19T01:56:36;100670.50;;;18.12;81.61
72959;BME280;60008;50.826;6.896;2022-08-19T01:59:06;100668.44;;;18.08;81.31
72959;BME280;60008;50.826;6.896;2022-08-19T02:01:34;100678.19;;;17.96;81.86
72959;BME280;60008;50.826;6.896;2022-08-19T02:04:01;100675.47;;;18.02;81.87
72959;BME280;60008;50.826;6.896;2022-08-19T02:06:28;100678.56;;;18.06;81.43
72959;BME280;60008;50.826;6.896;2022-08-19T02:08:55;100682.47;;;18.16;81.85
72959;BME280;60008;50.826;6.896;2022-08-19T02:11:29;100679.53;;;18.24;80.87
72959;BME280;60008;50.826;6.896;2022-08-19T02:13:58;100674.00;;;18.19;80.31
72959;BME280;60008;50.826;6.896;2022-08-19T02:16:25;100673.63;;;18.03;80.88
72959;BME280;60008;50.826;6.896;2022-08-19T02:18:52;100674.22;;;18.05;81.79
72959;BME280;60008;50.826;6.896;2022-08-19T02:21:20;100669.50;;;18.07;81.14
72959;BME280;60008;50.826;6.896;2022-08-19T02:23:48;100671.16;;;18.01;81.21
72959;BME280;60008;50.826;6.896;2022-08-19T02:26:15;100674.44;;;18.03;81.84
72959;BME280;60008;50.826;6.896;2022-08-19T02:28:41;100666.63;;;18.02;80.97
72959;BME280;60008;50.826;6.896;2022-08-19T02:31:13;100671.34;;;18.00;81.54
72959;BME280;60008;50.826;6.896;2022-08-19T02:33:41;100673.03;;;17.94;81.92
72959;BME280;60008;50.826;6.896;2022-08-19T02:36:10;100666.03;;;17.93;81.79
72959;BME280;60008;50.826;6.896;2022-08-19T02:38:37;100670.97;;;17.96;82.01
72959;BME280;60008;50.826;6.896;2022-08-19T02:41:08;100671.13;;;18.08;81.79
72959;BME280;60008;50.826;6.896;2022-08-19T02:43:37;100674.88;;;18.07;81.86
72959;BME280;60008;50.826;6.896;2022-08-19T02:46:13;100677.72;;;18.12;81.42
72959;BME280;60008;50.826;6.896;2022-08-19T02:48:41;100689.06;;;18.14;81.43
72959;BME280;60008;50.826;6.896;2022-08-19T02:51:07;100685.56;;;18.13;81.35
72959;BME280;60008;50.826;6.896;2022-08-19T02:53:34;100688.88;;;18.09;81.37
72959;BME280;60008;50.826;6.896;2022-08-19T02:56:01;100692.59;;;18.08;81.71
72959;BME280;60008;50.826;6.896;2022-08-19T02:58:32;100699.84;;;18.07;82.22
72959;BME280;60008;50.826;6.896;2022-08-19T03:00:58;100693.00;;;18.05;81.42
72959;BME280;60008;50.826;6.896;2022-08-19T03:03:26;100689.75;;;17.90;82.39
72959;BME280;60008;50.826;6.896;2022-08-19T03:06:13;100691.00;;;17.94;82.42
72959;BME280;60008;50.826;6.896;2022-08-19T03:08:42;100691.78;;;17.94;82.72
72959;BME280;60008;50.826;6.896;2022-08-19T03:13:44;100688.88;;;18.02;82.06
72959;BME280;60008;50.826;6.896;2022-08-19T03:16:12;100688.91;;;17.96;82.29
72959;BME280;60008;50.826;6.896;2022-08-19T03:18:38;100693.88;;;17.85;82.81
72959;BME280;60008;50.826;6.896;2022-08-19T03:21:06;100692.03;;;17.86;82.84
72959;BME280;60008;50.826;6.896;2022-08-19T03:23:37;100692.44;;;17.83;82.60
72959;BME280;60008;50.826;6.896;2022-08-19T03:26:05;100695.34;;;17.75;83.07
72959;BME280;60008;50.826;6.896;2022-08-19T03:28:45;100705.44;;;17.73;83.35
72959;BME280;60008;50.826;6.896;2022-08-19T03:31:24;100701.94;;;17.59;83.95
72959;BME280;60008;50.826;6.896;2022-08-19T03:34:20;100708.31;;;17.52;84.40
72959;BME280;60008;50.826;6.896;2022-08-19T03:36:47;100713.69;;;17.52;84.09
72959;BME280;60008;50.826;6.896;2022-08-19T03:39:15;100713.31;;;17.55;84.25
72959;BME280;60008;50.826;6.896;2022-08-19T03:41:43;100715.97;;;17.61;83.93
72959;BME280;60008;50.826;6.896;2022-08-19T03:44:15;100713.69;;;17.52;84.07
72959;BME280;60008;50.826;6.896;2022-08-19T03:46:45;100708.31;;;17.52;84.58
72959;BME280;60008;50.826;6.896;2022-08-19T03:49:12;100713.91;;;17.57;84.47
72959;BME280;60008;50.826;6.896;2022-08-19T03:51:41;100723.19;;;17.54;84.25
72959;BME280;60008;50.826;6.896;2022-08-19T03:54:11;100715.56;;;17.58;84.05
72959;BME280;60008;50.826;6.896;2022-08-19T03:56:39;100722.16;;;17.68;84.22
72959;BME280;60008;50.826;6.896;2022-08-19T03:59:08;100731.66;;;17.58;84.31
72959;BME280;60008;50.826;6.896;2022-08-19T04:01:35;100712.66;;;17.46;84.44
72959;BME280;60008;50.826;6.896;2022-08-19T04:04:02;100719.03;;;17.52;84.75
72959;BME280;60008;50.826;6.896;2022-08-19T04:06:36;100719.47;;;17.62;85.03
72959;BME280;60008;50.826;6.896;2022-08-19T04:09:07;100726.50;;;17.63;84.84
72959;BME280;60008;50.826;6.896;2022-08-19T04:11:40;100726.50;;;17.63;84.57
72959;BME280;60008;50.826;6.896;2022-08-19T04:14:12;100724.84;;;17.62;85.20
72959;BME280;60008;50.826;6.896;2022-08-19T04:16:40;100729.16;;;17.50;84.97
72959;BME280;60008;50.826;6.896;2022-08-19T04:19:06;100730.34;;;17.34;86.18
72959;BME280;60008;50.826;6.896;2022-08-19T04:21:33;100732.84;;;17.36;85.77
72959;BME280;60008;50.826;6.896;2022-08-19T04:24:00;100727.28;;;17.31;86.13
72959;BME280;60008;50.826;6.896;2022-08-19T04:26:35;100732.63;;;17.31;86.42
72959;BME280;60008;50.826;6.896;2022-08-19T04:29:06;100732.41;;;17.32;86.46
72959;BME280;60008;50.826;6.896;2022-08-19T04:31:39;100734.06;;;17.40;85.81
72959;BME280;60008;50.826;6.896;2022-08-19T04:34:08;100739.25;;;17.41;86.11
72959;BME280;60008;50.826;6.896;2022-08-19T04:36:39;100733.66;;;17.43;85.98
72959;BME280;60008;50.826;6.896;2022-08-19T04:39:14;100732.66;;;17.44;86.54
72959;BME280;60008;50.826;6.896;2022-08-19T04:41:42;100725.22;;;17.39;86.73
72959;BME280;60008;50.826;6.896;2022-08-19T04:44:27;100735.31;;;17.37;86.85
72959;BME280;60008;50.826;6.896;2022-08-19T04:46:58;100724.19;;;17.47;86.38
72959;BME280;60008;50.826;6.896;2022-08-19T04:49:26;100737.59;;;17.53;86.12
72959;BME280;60008;50.826;6.896;2022-08-19T04:51:53;100739.03;;;17.49;86.42
72959;BME280;60008;50.826;6.896;2022-08-19T04:54:23;100746.03;;;17.44;86.45
72959;BME280;60008;50.826;6.896;2022-08-19T04:57:06;100755.13;;;17.49;86.26
72959;BME280;60008;50.826;6.896;2022-08-19T04:59:36;100756.81;;;17.63;86.65
72959;BME280;60008;50.826;6.896;2022-08-19T05:02:03;100756.97;;;17.49;86.61
72959;BME280;60008;50.826;6.896;2022-08-19T05:04:30;100762.16;;;17.57;86.34
72959;BME280;60008;50.826;6.896;2022-08-19T05:06:59;100759.69;;;17.62;86.38
72959;BME280;60008;50.826;6.896;2022-08-19T05:09:28;100766.66;;;17.50;86.80
72959;BME280;60008;50.826;6.896;2022-08-19T05:12:15;100764.59;;;17.45;87.04
72959;BME280;60008;50.826;6.896;2022-08-19T05:14:42;100773.72;;;17.57;86.94
72959;BME280;60008;50.826;6.896;2022-08-19T05:17:10;100781.13;;;17.55;86.50
72959;BME280;60008;50.826;6.896;2022-08-19T05:19:54;100777.44;;;17.63;86.02
72959;BME280;60008;50.826;6.896;2022-08-19T05:22:41;100782.97;;;17.61;86.86
72959;BME280;60008;50.826;6.896;2022-08-19T05:25:10;100780.69;;;17.58;87.01
72959;BME280;60008;50.826;6.896;2022-08-19T05:27:41;100780.09;;;17.63;86.77
72959;BME280;60008;50.826;6.896;2022-08-19T05:30:09;100785.03;;;17.59;87.05
72959;BME280;60008;50.826;6.896;2022-08-19T05:32:36;100777.44;;;17.63;86.84
72959;BME280;60008;50.826;6.896;2022-08-19T05:35:04;100784.44;;;17.70;86.91
72959;BME280;60008;50.826;6.896;2022-08-19T05:37:31;100788.75;;;17.65;86.64
72959;BME280;60008;50.826;6.896;2022-08-19T05:40:01;100787.53;;;17.74;86.75
72959;BME280;60008;50.826;6.896;2022-08-19T05:42:27;100788.56;;;17.79;86.91
72959;BME280;60008;50.826;6.896;2022-08-19T05:44:54;100786.88;;;17.72;86.79
72959;BME280;60008;50.826;6.896;2022-08-19T05:47:22;100785.03;;;17.85;86.06
72959;BME280;60008;50.826;6.896;2022-08-19T05:49:49;100791.44;;;17.84;86.26
72959;BME280;60008;50.826;6.896;2022-08-19T05:52:17;100785.47;;;17.82;86.27
72959;BME280;60008;50.826;6.896;2022-08-19T05:54:51;100792.47;;;17.83;85.87
72959;BME280;60008;50.826;6.896;2022-08-19T05:57:18;100801.34;;;17.84;86.32
72959;BME280;60008;50.826;6.896;2022-08-19T05:59:46;100798.88;;;17.89;86.46
72959;BME280;60008;50.826;6.896;2022-08-19T06:02:19;100799.72;;;17.96;86.14
72959;BME280;60008;50.826;6.896;2022-08-19T06:04:45;100790.41;;;18.05;85.76
72959;BME280;60008;50.826;6.896;2022-08-19T06:07:12;100791.22;;;18.12;85.37
72959;BME280;60008;50.826;6.896;2022-08-19T06:09:39;100781.53;;;18.18;85.18
72959;BME280;60008;50.826;6.896;2022-08-19T06:12:06;100779.22;;;18.21;85.36
72959;BME280;60008;50.826;6.896;2022-08-19T06:14:35;100769.47;;;18.40;84.86
72959;BME280;60008;50.826;6.896;2022-08-19T06:17:05;100778.56;;;18.45;84.33
72959;BME280;60008;50.826;6.896;2022-08-19T06:19:33;100774.81;;;18.60;84.15
72959;BME280;60008;50.826;6.896;2022-08-19T06:22:06;100770.84;;;18.75;83.86
72959;BME280;60008;50.826;6.896;2022-08-19T06:24:34;100780.53;;;18.83;82.91
72959;BME280;60008;50.826;6.896;2022-08-19T06:27:02;100784.84;;;18.84;83.37
72959;BME280;60008;50.826;6.896;2022-08-19T06:29:32;100781.69;;;19.00;82.84
72959;BME280;60008;50.826;6.896;2022-08-19T06:32:00;100773.38;;;19.08;82.34
72959;BME280;60008;50.826;6.896;2022-08-19T06:34:31;100776.19;;;19.20;81.20
72959;BME280;60008;50.826;6.896;2022-08-19T06:36:59;100770.56;;;19.28;81.23
72959;BME280;60008;50.826;6.896;2022-08-19T06:39:30;100779.28;;;19.61;80.41
72959;BME280;60008;50.826;6.896;2022-08-19T06:41:59;100772.91;;;19.55;80.30
72959;BME280;60008;50.826;6.896;2022-08-19T06:44:29;100776.31;;;19.69;79.61
72959;BME280;60008;50.826;6.896;2022-08-19T06:46:57;100784.31;;;20.25;78.42
72959;BME280;60008;50.826;6.896;2022-08-19T06:49:24;100786.94;;;20.32;77.37
72959;BME280;60008;50.826;6.896;2022-08-19T06:51:58;100782.44;;;20.44;77.54
72959;BME280;60008;50.826;6.896;2022-08-19T06:54:28;100778.13;;;20.25;78.27
72959;BME280;60008;50.826;6.896;2022-08-19T06:56:57;100784.50;;;20.48;76.69
72959;BME280;60008;50.826;6.896;2022-08-19T06:59:24;100796.00;;;20.37;77.64
72959;BME280;60008;50.826;6.896;2022-08-19T07:01:56;100786.28;;;20.72;75.83
72959;BME280;60008;50.826;6.896;2022-08-19T07:04:26;100794.00;;;20.87;75.95
72959;BME280;60008;50.826;6.896;2022-08-19T07:07:08;100797.63;;;20.93;75.67
72959;BME280;60008;50.826;6.896;2022-08-19T07:09:46;100805.63;;;20.99;74.11
72959;BME280;60008;50.826;6.896;2022-08-19T07:12:26;100807.06;;;21.02;75.01
72959;BME280;60008;50.826;6.896;2022-08-19T07:14:55;100808.34;;;20.99;75.30
72959;BME280;60008;50.826;6.896;2022-08-19T07:17:22;100805.25;;;20.96;75.84
72959;BME280;60008;50.826;6.896;2022-08-19T07:19:50;100810.13;;;21.05;74.15
72959;BME280;60008;50.826;6.896;2022-08-19T07:22:19;100818.06;;;20.82;75.49
72959;BME280;60008;50.826;6.896;2022-08-19T07:24:49;100815.91;;;20.91;75.24
72959;BME280;60008;50.826;6.896;2022-08-19T07:27:17;100822.78;;;20.68;76.38
72959;BME280;60008;50.826;6.896;2022-08-19T07:29:50;100825.81;;;20.78;76.18
72959;BME280;60008;50.826;6.896;2022-08-19T07:32:23;100823.72;;;20.62;75.60
72959;BME280;60008;50.826;6.896;2022-08-19T07:34:52;100818.75;;;20.77;75.78
72959;BME280;60008;50.826;6.896;2022-08-19T07:37:18;100826.41;;;21.17;75.04
72959;BME280;60008;50.826;6.896;2022-08-19T07:39:45;100833.16;;;21.38;73.44
72959;BME280;60008;50.826;6.896;2022-08-19T07:42:12;100831.47;;;21.55;73.64
72959;BME280;60008;50.826;6.896;2022-08-19T07:44:40;100831.41;;;21.43;73.42
72959;BME280;60008;50.826;6.896;2022-08-19T07:47:15;100838.91;;;21.71;72.65
72959;BME280;60008;50.826;6.896;2022-08-19T07:50:07;100834.00;;;21.20;74.27
72959;BME280;60008;50.826;6.896;2022-08-19T07:52:36;100838.44;;;21.14;74.25
72959;BME280;60008;50.826;6.896;2022-08-19T07:55:06;100839.31;;;21.56;71.75
72959;BME280;60008;50.826;6.896;2022-08-19T07:57:53;100846.56;;;21.44;73.17
72959;BME280;60008;50.826;6.896;2022-08-19T08:00:20;100844.25;;;21.29;72.77
72959;BME280;60008;50.826;6.896;2022-08-19T08:02:50;100851.31;;;21.30;73.09
72959;BME280;60008;50.826;6.896;2022-08-19T08:05:20;100860.06;;;21.56;72.45
72959;BME280;60008;50.826;6.896;2022-08-19T08:08:09;100860.81;;;21.74;71.98
72959;BME280;60008;50.826;6.896;2022-08-19T08:10:54;100853.16;;;21.89;71.67
72959;BME280;60008;50.826;6.896;2022-08-19T08:13:24;100860.81;;;22.16;71.49
72959;BME280;60008;50.826;6.896;2022-08-19T08:15:52;100860.00;;;22.27;70.58
72959;BME280;60008;50.826;6.896;2022-08-19T08:18:22;100859.16;;;22.03;71.26
72959;BME280;60008;50.826;6.896;2022-08-19T08:20:56;100861.41;;;22.06;71.00
72959;BME280;60008;50.826;6.896;2022-08-19T08:23:23;100871.63;;;22.16;71.13
72959;BME280;60008;50.826;6.896;2022-08-19T08:25:53;100862.44;;;22.05;71.03
72959;BME280;60008;50.826;6.896;2022-08-19T08:28:22;100871.19;;;22.30;70.23
72959;BME280;60008;50.826;6.896;2022-08-19T08:30:50;100862.25;;;22.07;71.08
72959;BME280;60008;50.826;6.896;2022-08-19T08:33:22;100854.03;;;21.83;71.78
72959;BME280;60008;50.826;6.896;2022-08-19T08:36:00;100870.72;;;22.68;68.72
72959;BME280;60008;50.826;6.896;2022-08-19T08:38:30;100866.91;;;23.04;67.92
72959;BME280;60008;50.826;6.896;2022-08-19T08:41:12;100873.91;;;23.17;66.27
72959;BME280;60008;50.826;6.896;2022-08-19T08:43:48;100864.22;;;22.92;67.40
72959;BME280;60008;50.826;6.896;2022-08-19T08:46:58;100861.72;;;23.70;64.32
72959;BME280;60008;50.826;6.896;2022-08-19T08:49:25;100859.88;;;24.04;63.56
72959;BME280;60008;50.826;6.896;2022-08-19T08:54:53;100859.13;;;25.45;58.22
72959;BME280;60008;50.826;6.896;2022-08-19T08:57:44;100861.56;;;26.27;56.22
72959;BME280;60008;50.826;6.896;2022-08-19T09:00:18;100860.31;;;25.76;56.84
72959;BME280;60008;50.826;6.896;2022-08-19T09:02:46;100856.88;;;25.37;56.82
72959;BME280;60008;50.826;6.896;2022-08-19T09:05:17;100855.84;;;25.97;56.26
72959;BME280;60008;50.826;6.896;2022-08-19T09:08:08;100860.09;;;25.56;56.76
72959;BME280;60008;50.826;6.896;2022-08-19T09:10:54;100854.78;;;25.98;55.27
72959;BME280;60008;50.826;6.896;2022-08-19T09:16:11;100859.75;;;26.43;53.45
72959;BME280;60008;50.826;6.896;2022-08-19T09:18:43;100859.25;;;26.46;52.80
72959;BME280;60008;50.826;6.896;2022-08-19T09:21:10;100857.03;;;27.62;49.05
72959;BME280;60008;50.826;6.896;2022-08-19T09:23:37;100849.47;;;27.99;49.11
72959;BME280;60008;50.826;6.896;2022-08-19T09:26:12;100848.56;;;28.54;46.08
72959;BME280;60008;50.826;6.896;2022-08-19T09:28:43;100849.16;;;27.65;48.40
72959;BME280;60008;50.826;6.896;2022-08-19T09:31:17;100841.16;;;27.29;48.35
72959;BME280;60008;50.826;6.896;2022-08-19T09:33:44;100850.94;;;27.25;47.82
72959;BME280;60008;50.826;6.896;2022-08-19T09:36:13;100843.94;;;28.60;45.05
72959;BME280;60008;50.826;6.896;2022-08-19T09:38:59;100842.59;;;28.47;44.56
72959;BME280;60008;50.826;6.896;2022-08-19T09:41:27;100837.47;;;28.25;45.56
72959;BME280;60008;50.826;6.896;2022-08-19T09:43:57;100844.25;;;28.33;44.69
72959;BME280;60008;50.826;6.896;2022-08-19T09:46:27;100846.28;;;29.02;42.35
72959;BME280;60008;50.826;6.896;2022-08-19T09:48:57;100847.25;;;27.86;44.94
72959;BME280;60008;50.826;6.896;2022-08-19T09:51:31;100841.94;;;28.96;43.26
72959;BME280;60008;50.826;6.896;2022-08-19T09:54:03;100836.09;;;29.22;42.59
72959;BME280;60008;50.826;6.896;2022-08-19T09:56:31;100843.44;;;29.32;42.12
72959;BME280;60008;50.826;6.896;2022-08-19T09:59:01;100838.56;;;29.14;42.24
72959;BME280;60008;50.826;6.896;2022-08-19T10:01:30;100843.34;;;30.15;38.96
72959;BME280;60008;50.826;6.896;2022-08-19T10:03:58;100837.56;;;30.21;38.01
72959;BME280;60008;50.826;6.896;2022-08-19T10:06:27;100843.09;;;29.38;39.77
72959;BME280;60008;50.826;6.896;2022-08-19T10:09:12;100838.19;;;29.40;41.03
72959;BME280;60008;50.826;6.896;2022-08-19T10:11:40;100830.16;;;29.05;40.67
72959;BME280;60008;50.826;6.896;2022-08-19T10:14:18;100830.91;;;27.66;44.43
72959;BME280;60008;50.826;6.896;2022-08-19T10:16:48;100829.22;;;28.56;42.42
72959;BME280;60008;50.826;6.896;2022-08-19T10:19:15;100833.47;;;28.97;41.64
72959;BME280;60008;50.826;6.896;2022-08-19T10:21:52;100833.13;;;29.58;40.86
72959;BME280;60008;50.826;6.896;2022-08-19T10:24:18;100828.09;;;29.36;40.01
72959;BME280;60008;50.826;6.896;2022-08-19T10:26:47;100828.16;;;29.26;40.56
72959;BME280;60008;50.826;6.896;2022-08-19T10:29:25;100837.81;;;30.77;38.12
72959;BME280;60008;50.826;6.896;2022-08-19T10:32:02;100821.44;;;31.89;36.38
72959;BME280;60008;50.826;6.896;2022-08-19T10:34:30;100827.31;;;31.45;35.82
72959;BME280;60008;50.826;6.896;2022-08-19T10:36:57;100822.41;;;31.66;36.53
72959;BME280;60008;50.826;6.896;2022-08-19T10:39:30;100820.75;;;31.28;36.82
72959;BME280;60008;50.826;6.896;2022-08-19T10:42:08;100815.91;;;29.13;40.82
72959;BME280;60008;50.826;6.896;2022-08-19T10:44:37;100815.50;;;30.13;39.91
72959;BME280;60008;50.826;6.896;2022-08-19T10:47:04;100818.19;;;27.04;46.84
72959;BME280;60008;50.826;6.896;2022-08-19T10:49:50;100804.75;;;29.54;41.09
72959;BME280;60008;50.826;6.896;2022-08-19T10:52:39;100813.72;;;27.45;45.41
72959;BME280;60008;50.826;6.896;2022-08-19T10:55:20;100814.03;;;26.35;48.54
72959;BME280;60008;50.826;6.896;2022-08-19T10:58:11;100807.63;;;25.51;51.34
72959;BME280;60008;50.826;6.896;2022-08-19T11:00:38;100806.47;;;26.94;48.78
72959;BME280;60008;50.826;6.896;2022-08-19T11:03:06;100806.19;;;26.07;50.93
72959;BME280;60008;50.826;6.896;2022-08-19T11:05:35;100802.19;;;28.74;44.29
72959;BME280;60008;50.826;6.896;2022-08-19T11:08:06;100800.66;;;27.52;45.77
72959;BME280;60008;50.826;6.896;2022-08-19T11:10:49;100802.25;;;27.38;46.45
72959;BME280;60008;50.826;6.896;2022-08-19T11:13:15;100805.16;;;26.13;49.82
72959;BME280;60008;50.826;6.896;2022-08-19T11:15:42;100805.50;;;26.16;48.79
72959;BME280;60008;50.826;6.896;2022-08-19T11:18:09;100798.41;;;27.34;45.56
72959;BME280;60008;50.826;6.896;2022-08-19T11:20:38;100799.72;;;27.01;47.33
72959;BME280;60008;50.826;6.896;2022-08-19T11:23:05;100803.53;;;27.15;45.92
72959;BME280;60008;50.826;6.896;2022-08-19T11:25:32;100797.31;;;29.64;40.81
72959;BME280;60008;50.826;6.896;2022-08-19T11:27:59;100790.28;;;29.92;39.74
72959;BME280;60008;50.826;6.896;2022-08-19T11:30:26;100783.56;;;28.81;41.23
72959;BME280;60008;50.826;6.896;2022-08-19T11:32:54;100793.09;;;30.39;38.53
72959;BME280;60008;50.826;6.896;2022-08-19T11:35:20;100792.84;;;30.36;39.34
72959;BME280;60008;50.826;6.896;2022-08-19T11:37:49;100794.88;;;29.96;39.55
72959;BME280;60008;50.826;6.896;2022-08-19T11:40:16;100793.13;;;29.72;39.90
72959;BME280;60008;50.826;6.896;2022-08-19T11:42:43;100794.41;;;29.02;41.54
72959;BME280;60008;50.826;6.896;2022-08-19T11:45:27;100791.56;;;28.58;40.98
72959;BME280;60008;50.826;6.896;2022-08-19T11:47:54;100794.41;;;27.92;43.82
72959;BME280;60008;50.826;6.896;2022-08-19T11:50:22;100798.56;;;26.87;45.87
72959;BME280;60008;50.826;6.896;2022-08-19T11:52:52;100786.44;;;27.25;44.91
72959;BME280;60008;50.826;6.896;2022-08-19T11:55:20;100784.25;;;27.32;45.05
72959;BME280;60008;50.826;6.896;2022-08-19T11:57:46;100777.81;;;27.58;44.88
72959;BME280;60008;50.826;6.896;2022-08-19T12:00:13;100785.28;;;27.06;45.79
72959;BME280;60008;50.826;6.896;2022-08-19T12:02:40;100782.34;;;27.17;45.75
72959;BME280;60008;50.826;6.896;2022-08-19T12:05:08;100777.72;;;27.23;45.54
72959;BME280;60008;50.826;6.896;2022-08-19T12:07:39;100786.88;;;26.92;44.71
72959;BME280;60008;50.826;6.896;2022-08-19T12:10:10;100794.66;;;26.68;46.13
72959;BME280;60008;50.826;6.896;2022-08-19T12:12:37;100785.88;;;26.56;46.85
72959;BME280;60008;50.826;6.896;2022-08-19T12:15:09;100787.59;;;26.77;46.61
72959;BME280;60008;50.826;6.896;2022-08-19T12:17:37;100788.50;;;26.36;46.32
72959;BME280;60008;50.826;6.896;2022-08-19T12:20:05;100786.13;;;26.49;47.23
72959;BME280;60008;50.826;6.896;2022-08-19T12:22:33;100780.63;;;26.39;46.34
72959;BME280;60008;50.826;6.896;2022-08-19T12:24:59;100777.13;;;26.44;46.60
72959;BME280;60008;50.826;6.896;2022-08-19T12:27:27;100771.78;;;26.69;46.53
72959;BME280;60008;50.826;6.896;2022-08-19T12:30:09;100770.69;;;26.65;47.26
72959;BME280;60008;50.826;6.896;2022-08-19T12:32:37;100773.66;;;26.63;46.63
72959;BME280;60008;50.826;6.896;2022-08-19T12:35:05;100769.41;;;26.26;45.87
72959;BME280;60008;50.826;6.896;2022-08-19T12:37:33;100765.69;;;26.00;46.86
72959;BME280;60008;50.826;6.896;2022-08-19T12:40:00;100769.34;;;26.16;47.80
72959;BME280;60008;50.826;6.896;2022-08-19T12:42:27;100771.69;;;26.39;47.03
72959;BME280;60008;50.826;6.896;2022-08-19T12:44:54;100765.72;;;26.47;47.16
72959;BME280;60008;50.826;6.896;2022-08-19T12:47:21;100762.84;;;26.69;46.35
72959;BME280;60008;50.826;6.896;2022-08-19T12:49:48;100756.22;;;26.49;46.18
72959;BME280;60008;50.826;6.896;2022-08-19T12:52:20;100755.94;;;26.09;47.16
72959;BME280;60008;50.826;6.896;2022-08-19T12:54:50;100760.91;;;26.64;45.57
72959;BME280;60008;50.826;6.896;2022-08-19T12:57:21;100756.75;;;26.46;45.24
72959;BME280;60008;50.826;6.896;2022-08-19T12:59:57;100750.44;;;26.36;46.16
72959;BME280;60008;50.826;6.896;2022-08-19T13:02:24;100750.81;;;26.13;45.54
72959;BME280;60008;50.826;6.896;2022-08-19T13:04:51;100741.97;;;25.90;45.46
72959;BME280;60008;50.826;6.896;2022-08-19T13:07:17;100749.59;;;26.25;44.86
72959;BME280;60008;50.826;6.896;2022-08-19T13:09:44;100740.25;;;26.63;45.44
72959;BME280;60008;50.826;6.896;2022-08-19T13:12:11;100735.16;;;26.82;42.16
72959;BME280;60008;50.826;6.896;2022-08-19T13:14:39;100739.75;;;26.76;42.35
72959;BME280;60008;50.826;6.896;2022-08-19T13:17:07;100744.34;;;26.66;43.01